createdAt,value
2019-04-14T00:03:00.527Z,8.20
2019-04-14T00:33:04.050Z,7.70
2019-04-14T01:03:09.035Z,7.60
2019-04-14T01:33:11.931Z,8.10
2019-04-14T02:03:17.026Z,8.50
2019-04-14T02:33:44.426Z,7.90
2019-04-14T03:34:29.844Z,7.50
2019-04-14T04:03:34.603Z,7.70
2019-04-14T04:33:37.312Z,7.90
2019-04-14T05:03:40.765Z,7.90
2019-04-14T05:33:44.683Z,8.10
2019-04-14T06:03:48.133Z,8.50
2019-04-14T06:33:53.476Z,9.00
2019-04-14T07:03:56.416Z,10.00
2019-04-14T07:34:01.670Z,10.70
2019-04-14T08:04:06.112Z,11.20
2019-04-14T08:34:13.307Z,11.80
2019-04-14T09:04:18.747Z,12.30
2019-04-14T09:34:24.091Z,13.10
2019-04-14T10:04:27.246Z,13.80
2019-04-14T10:34:32.869Z,13.80
2019-04-14T11:04:36.761Z,14.40
2019-04-14T11:34:42.397Z,15.60
2019-04-14T12:04:46.124Z,16.40
2019-04-14T12:34:51.572Z,17.50
2019-04-14T13:04:55.447Z,20.30
2019-04-14T13:35:00.957Z,21.40
2019-04-14T14:05:05.036Z,22.30
2019-04-14T14:35:10.772Z,23.10
2019-04-14T15:05:13.453Z,22.90
2019-04-14T15:35:24.956Z,21.70
2019-04-14T16:05:28.368Z,21.50
2019-04-14T16:35:31.046Z,20.50
2019-04-14T17:05:34.976Z,18.70
2019-04-14T17:35:37.733Z,17.70
2019-04-14T18:05:40.422Z,16.80
2019-04-14T18:35:43.084Z,15.50
2019-04-14T19:05:45.768Z,14.60
2019-04-14T19:35:48.444Z,14.20
2019-04-14T20:05:51.411Z,13.70
2019-04-14T20:35:54.036Z,13.20
2019-04-14T21:05:57.824Z,12.80
2019-04-14T21:36:00.536Z,12.50
2019-04-14T22:06:03.192Z,12.00
2019-04-14T22:36:05.848Z,11.80
2019-04-14T23:06:08.467Z,11.40
2019-04-14T23:36:11.134Z,11.00
